createdAt,value
2018-04-04T00:02:16.285Z,11.22
2018-04-04T00:04:43.749Z,11.16
2018-04-04T00:07:11.208Z,11.29
2018-04-04T00:09:38.833Z,11.09
2018-04-04T00:12:06.273Z,11.19
2018-04-04T00:14:33.717Z,11.31
2018-04-04T00:17:01.181Z,11.42
2018-04-04T00:19:28.663Z,11.59
2018-04-04T00:21:56.385Z,11.56
2018-04-04T00:24:23.842Z,11.69
2018-04-04T00:26:51.289Z,11.32
2018-04-04T00:29:18.757Z,11.39
2018-04-04T00:31:46.234Z,11.71
2018-04-04T00:34:13.837Z,11.90
2018-04-04T00:36:41.278Z,11.90
2018-04-04T00:39:08.726Z,11.59
2018-04-04T00:41:36.187Z,11.52
2018-04-04T00:44:03.642Z,11.48
2018-04-04T00:46:31.504Z,11.62
2018-04-04T00:48:58.949Z,11.33
2018-04-04T00:51:26.394Z,11.24
2018-04-04T00:53:53.858Z,11.34
2018-04-04T00:56:21.305Z,11.20
2018-04-04T00:58:49.054Z,11.31
2018-04-04T01:01:16.518Z,11.45
2018-04-04T01:03:43.957Z,11.11
2018-04-04T01:06:11.441Z,11.16
2018-04-04T01:08:38.928Z,10.93
2018-04-04T01:11:06.473Z,11.06
2018-04-04T01:13:33.921Z,10.88
2018-04-04T01:16:01.373Z,10.85
2018-04-04T01:18:28.840Z,10.45
2018-04-04T01:20:56.319Z,10.57
2018-04-04T01:23:23.954Z,10.22
2018-04-04T01:25:51.422Z,10.21
2018-04-04T01:28:18.862Z,9.66
2018-04-04T01:30:46.325Z,9.58
2018-04-04T01:33:13.769Z,9.55
2018-04-04T01:35:41.413Z,9.47
2018-04-04T01:38:08.850Z,9.47
2018-04-04T01:40:36.290Z,9.42
2018-04-04T01:43:03.785Z,9.22
2018-04-04T01:45:31.221Z,9.23
2018-04-04T01:47:58.768Z,9.37
2018-04-04T01:50:26.212Z,9.33
2018-04-04T01:52:53.668Z,9.36
2018-04-04T01:55:21.131Z,9.42
2018-04-04T01:57:48.570Z,9.27
2018-04-04T02:00:16.042Z,9.22
2018-04-04T02:02:43.481Z,9.32
2018-04-04T02:05:10.966Z,9.69
2018-04-04T02:07:38.425Z,10.04
2018-04-04T02:10:05.883Z,10.23
2018-04-04T02:12:33.365Z,10.29
2018-04-04T02:15:00.800Z,9.94
2018-04-04T02:17:28.244Z,9.91
2018-04-04T02:19:55.734Z,9.73
2018-04-04T02:22:23.173Z,9.46
2018-04-04T02:24:50.785Z,9.42
2018-04-04T02:27:18.241Z,9.16
2018-04-04T02:29:45.673Z,9.03
2018-04-04T02:32:13.150Z,9.13
2018-04-04T02:34:40.609Z,9.11
2018-04-04T02:37:08.249Z,8.98
2018-04-04T02:39:35.697Z,8.77
2018-04-04T02:42:03.184Z,8.59
2018-04-04T02:44:30.637Z,8.49
2018-04-04T02:46:58.072Z,8.61
2018-04-04T02:49:25.681Z,8.65
2018-04-04T02:51:53.113Z,8.65
2018-04-04T02:54:20.549Z,8.70
2018-04-04T02:56:48.017Z,8.52
2018-04-04T02:59:15.462Z,8.66
2018-04-04T03:01:43.805Z,8.94
2018-04-04T03:04:10.655Z,9.13
2018-04-04T03:06:38.101Z,9.25
2018-04-04T03:09:05.582Z,9.58
2018-04-04T03:11:33.021Z,9.55
2018-04-04T03:14:00.510Z,9.58
2018-04-04T03:16:27.986Z,9.61
2018-04-04T03:18:55.424Z,9.86
2018-04-04T03:21:22.906Z,9.64
2018-04-04T03:23:50.341Z,9.55
2018-04-04T03:26:17.778Z,9.51
2018-04-04T03:28:45.252Z,9.26
2018-04-04T03:31:12.718Z,9.21
2018-04-04T03:33:40.189Z,9.22
2018-04-04T03:36:07.641Z,9.42
2018-04-04T03:38:35.113Z,9.38
2018-04-04T03:41:02.555Z,9.44
2018-04-04T03:43:30.017Z,9.84
2018-04-04T03:45:57.468Z,9.66
2018-04-04T03:48:24.913Z,9.63
2018-04-04T03:50:52.385Z,9.51
2018-04-04T03:53:19.846Z,9.52
2018-04-04T03:55:47.281Z,9.65
2018-04-04T03:58:14.745Z,9.56
2018-04-04T04:00:42.206Z,9.61
2018-04-04T04:03:09.651Z,9.81
2018-04-04T04:05:37.184Z,9.93
2018-04-04T04:08:04.621Z,10.13
2018-04-04T04:10:32.069Z,10.41
2018-04-04T04:12:59.538Z,10.11
2018-04-04T04:15:26.978Z,9.99
2018-04-04T04:17:54.422Z,10.00
2018-04-04T04:20:21.897Z,9.98
2018-04-04T04:22:49.369Z,9.98
2018-04-04T04:25:16.806Z,10.07
2018-04-04T04:27:44.493Z,9.83
2018-04-04T04:30:11.945Z,9.81
2018-04-04T04:32:39.433Z,9.68
2018-04-04T04:35:06.928Z,9.82
2018-04-04T04:37:34.369Z,9.68
2018-04-04T04:40:01.818Z,9.53
2018-04-04T04:42:29.397Z,9.78
2018-04-04T04:44:56.885Z,9.84
2018-04-04T04:47:24.333Z,9.81
2018-04-04T04:49:51.801Z,9.89
2018-04-04T04:52:19.266Z,9.97
2018-04-04T04:54:46.728Z,9.83
2018-04-04T04:57:14.225Z,10.02
2018-04-04T04:59:41.682Z,10.00
2018-04-04T05:02:09.134Z,9.86
2018-04-04T05:04:36.569Z,9.80
2018-04-04T05:07:04.039Z,9.85
2018-04-04T05:09:31.506Z,9.94
2018-04-04T05:11:58.954Z,10.30
2018-04-04T05:14:26.441Z,10.06
2018-04-04T05:16:54.230Z,9.98
2018-04-04T05:19:21.864Z,10.04
2018-04-04T05:21:49.321Z,9.89
2018-04-04T05:24:16.810Z,9.78
2018-04-04T05:26:44.281Z,9.72
2018-04-04T05:29:11.750Z,9.69
2018-04-04T05:31:39.557Z,9.69
2018-04-04T05:34:07.024Z,9.74
2018-04-04T05:36:34.470Z,9.74
2018-04-04T05:39:01.946Z,9.80
2018-04-04T05:41:29.388Z,9.82
2018-04-04T05:43:57.266Z,9.88
2018-04-04T05:46:24.701Z,9.99
2018-04-04T05:48:52.150Z,10.15
2018-04-04T05:51:19.620Z,10.05
2018-04-04T05:53:47.093Z,10.10
2018-04-04T05:56:14.662Z,9.93
2018-04-04T05:58:42.110Z,9.85
2018-04-04T06:01:09.765Z,9.75
2018-04-04T06:03:37.226Z,9.72
2018-04-04T06:06:06.509Z,9.73
2018-04-04T06:08:34.223Z,9.86
2018-04-04T06:11:01.661Z,10.10
2018-04-04T06:13:29.106Z,10.05
2018-04-04T06:15:56.569Z,10.11
2018-04-04T06:18:24.017Z,9.92
2018-04-04T06:20:51.523Z,10.07
2018-04-04T06:23:18.974Z,10.18
2018-04-04T06:25:46.421Z,10.33
2018-04-04T06:28:13.877Z,10.42
2018-04-04T06:30:41.333Z,10.33
2018-04-04T06:33:09.002Z,10.28
2018-04-04T06:35:36.451Z,10.29
2018-04-04T06:38:03.896Z,10.32
2018-04-04T06:40:31.378Z,10.52
2018-04-04T06:42:58.845Z,10.57
2018-04-04T06:45:26.453Z,10.51
2018-04-04T06:47:53.899Z,10.48
2018-04-04T06:50:21.481Z,10.62
2018-04-04T06:52:48.978Z,10.98
2018-04-04T06:55:16.433Z,11.10
2018-04-04T06:57:44.109Z,10.87
2018-04-04T07:00:11.563Z,10.84
2018-04-04T07:02:39.010Z,10.74
2018-04-04T07:05:06.494Z,10.91
2018-04-04T07:07:33.985Z,11.18
2018-04-04T07:10:01.429Z,11.07
2018-04-04T07:12:28.881Z,11.01
2018-04-04T07:14:56.329Z,11.25
2018-04-04T07:17:23.805Z,11.28
2018-04-04T07:19:51.249Z,11.12
2018-04-04T07:22:19.036Z,11.19
2018-04-04T07:24:46.474Z,11.12
2018-04-04T07:27:13.959Z,11.17
2018-04-04T07:29:41.430Z,11.29
2018-04-04T07:32:08.877Z,11.48
2018-04-04T07:34:36.681Z,11.42
2018-04-04T07:37:04.119Z,11.39
2018-04-04T07:39:31.560Z,11.21
2018-04-04T07:41:59.084Z,11.18
2018-04-04T07:44:26.537Z,11.19
2018-04-04T07:46:54.005Z,11.48
2018-04-04T07:49:21.477Z,11.41
2018-04-04T07:51:48.937Z,11.40
2018-04-04T07:54:16.415Z,11.35
2018-04-04T07:56:43.890Z,11.21
2018-04-04T07:59:11.468Z,11.33
2018-04-04T08:01:38.952Z,11.29
2018-04-04T08:04:06.417Z,11.37
2018-04-04T08:06:33.913Z,11.37
2018-04-04T08:09:01.392Z,11.35
2018-04-04T08:11:28.886Z,11.35
2018-04-04T08:13:56.335Z,11.33
2018-04-04T08:16:23.815Z,11.40
2018-04-04T08:18:51.292Z,11.58
2018-04-04T08:21:18.733Z,11.65
2018-04-04T08:23:46.381Z,11.85
2018-04-04T08:26:13.822Z,12.02
2018-04-04T08:28:41.287Z,12.28
2018-04-04T08:31:08.748Z,12.47
2018-04-04T08:33:36.200Z,12.65
2018-04-04T08:36:03.773Z,12.79
2018-04-04T08:38:31.254Z,13.04
2018-04-04T08:40:58.701Z,13.15
2018-04-04T08:43:26.183Z,13.41
2018-04-04T08:45:53.631Z,13.46
2018-04-04T08:48:21.381Z,13.59
2018-04-04T08:50:48.873Z,13.69
2018-04-04T08:53:16.571Z,13.83
2018-04-04T08:55:44.047Z,14.17
2018-04-04T08:58:11.490Z,14.27
2018-04-04T09:00:39.129Z,14.48
2018-04-04T09:03:06.573Z,14.98
2018-04-04T09:05:34.029Z,15.31
2018-04-04T09:08:01.542Z,15.23
2018-04-04T09:10:28.981Z,15.24
2018-04-04T09:12:59.104Z,15.35
2018-04-04T09:15:27.065Z,15.34
2018-04-04T09:17:54.517Z,15.31
2018-04-04T09:20:21.979Z,15.41
2018-04-04T09:22:49.437Z,15.45
2018-04-04T09:25:16.920Z,15.72
2018-04-04T09:27:44.390Z,15.82
2018-04-04T09:30:11.830Z,15.97
2018-04-04T09:32:39.329Z,16.01
2018-04-04T09:35:06.799Z,15.95
2018-04-04T09:37:34.554Z,16.21
2018-04-04T09:40:01.997Z,16.26
2018-04-04T09:42:29.693Z,16.32
2018-04-04T09:44:57.181Z,16.37
2018-04-04T09:47:24.631Z,16.25
2018-04-04T09:49:52.154Z,16.48
2018-04-04T09:52:19.640Z,16.49
2018-04-04T09:54:47.102Z,16.60
2018-04-04T09:57:14.581Z,16.33
2018-04-04T09:59:42.024Z,16.33
2018-04-04T10:02:15.099Z,16.20
2018-04-04T10:04:42.581Z,16.46
2018-04-04T10:07:10.241Z,16.54
2018-04-04T10:09:37.689Z,16.64
2018-04-04T10:12:05.136Z,16.99
2018-04-04T10:14:32.601Z,16.87
2018-04-04T10:17:00.181Z,16.78
2018-04-04T10:19:27.890Z,16.94
2018-04-04T10:21:55.376Z,16.98
2018-04-04T10:24:22.856Z,16.91
2018-04-04T10:26:50.321Z,16.94
2018-04-04T10:29:17.777Z,16.88
2018-04-04T10:31:45.482Z,16.55
2018-04-04T10:34:12.937Z,16.52
2018-04-04T10:36:40.397Z,16.39
2018-04-04T10:39:07.883Z,16.14
2018-04-04T10:41:35.333Z,15.70
2018-04-04T10:44:02.993Z,15.45
2018-04-04T10:46:30.440Z,15.03
2018-04-04T10:48:57.912Z,14.72
2018-04-04T10:51:25.381Z,15.04
2018-04-04T10:53:52.845Z,14.77
2018-04-04T10:56:20.664Z,14.47
2018-04-04T10:58:48.110Z,14.58
2018-04-04T11:01:15.605Z,14.26
2018-04-04T11:03:43.068Z,14.47
2018-04-04T11:06:10.506Z,14.43
2018-04-04T11:08:38.321Z,14.54
2018-04-04T11:11:05.780Z,14.94
2018-04-04T11:13:33.224Z,15.05
2018-04-04T11:16:00.698Z,15.03
2018-04-04T11:18:28.146Z,15.22
2018-04-04T11:20:55.613Z,15.35
2018-04-04T11:23:23.049Z,15.44
2018-04-04T11:25:50.502Z,15.29
2018-04-04T11:28:17.962Z,15.24
2018-04-04T11:30:45.418Z,15.39
2018-04-04T11:33:12.916Z,15.22
2018-04-04T11:35:41.265Z,15.12
2018-04-04T11:38:08.710Z,15.10
2018-04-04T11:40:36.197Z,15.13
2018-04-04T11:43:03.642Z,15.06
2018-04-04T11:45:31.120Z,15.17
2018-04-04T11:47:58.571Z,15.32
2018-04-04T11:50:26.049Z,15.40
2018-04-04T11:52:53.737Z,15.27
2018-04-04T11:55:20.984Z,15.25
2018-04-04T11:57:48.466Z,15.12
2018-04-04T12:00:15.911Z,15.08
2018-04-04T12:02:43.355Z,14.80
2018-04-04T12:05:10.814Z,14.79
2018-04-04T12:07:38.263Z,15.20
2018-04-04T12:10:05.906Z,15.02
2018-04-04T12:12:33.357Z,14.69
2018-04-04T12:15:00.802Z,14.72
2018-04-04T12:17:28.277Z,14.66
2018-04-04T12:19:55.789Z,14.68
2018-04-04T12:22:23.231Z,14.40
2018-04-04T12:24:50.694Z,14.34
2018-04-04T12:27:18.157Z,14.38
2018-04-04T12:29:45.613Z,14.35
2018-04-04T12:32:13.069Z,14.19
2018-04-04T12:34:40.545Z,13.92
2018-04-04T12:37:07.985Z,13.93
2018-04-04T12:39:35.433Z,13.75
2018-04-04T12:42:02.906Z,13.48
2018-04-04T12:44:30.350Z,13.44
2018-04-04T12:46:58.021Z,13.55
2018-04-04T12:49:25.497Z,13.58
2018-04-04T12:51:52.941Z,13.20
2018-04-04T12:54:20.405Z,13.09
2018-04-04T12:56:47.853Z,12.99
2018-04-04T12:59:15.492Z,12.85
2018-04-04T13:01:42.952Z,12.89
2018-04-04T13:04:10.421Z,12.85
2018-04-04T13:06:37.897Z,12.71
2018-04-04T13:09:17.186Z,12.71
2018-04-04T13:11:44.792Z,12.58
2018-04-04T13:14:12.247Z,12.49
2018-04-04T13:16:49.437Z,12.59
2018-04-04T13:19:16.886Z,12.54
2018-04-04T13:21:44.369Z,12.54
2018-04-04T13:24:11.838Z,12.48
2018-04-04T13:26:39.286Z,12.40
2018-04-04T13:29:06.927Z,12.45
2018-04-04T13:31:34.424Z,12.43
2018-04-04T13:34:01.889Z,12.35
2018-04-04T13:36:29.392Z,12.53
2018-04-04T13:38:56.865Z,12.51
2018-04-04T13:41:24.577Z,12.50
2018-04-04T13:43:52.270Z,12.63
2018-04-04T13:46:19.713Z,12.58
2018-04-04T13:48:47.434Z,12.65
2018-04-04T13:51:14.882Z,12.74
2018-04-04T13:53:42.581Z,12.54
2018-04-04T13:56:10.045Z,12.55
2018-04-04T13:58:37.508Z,12.81
2018-04-04T14:01:04.981Z,12.73
2018-04-04T14:03:32.445Z,12.78
2018-04-04T14:06:00.078Z,12.87
2018-04-04T14:08:27.550Z,12.99
2018-04-04T14:10:55.031Z,13.02
2018-04-04T14:13:22.497Z,13.08
2018-04-04T14:15:49.942Z,13.33
2018-04-04T14:18:17.640Z,13.45
2018-04-04T14:20:45.090Z,13.66
2018-04-04T14:23:12.533Z,13.73
2018-04-04T14:25:40.196Z,13.67
2018-04-04T14:28:07.667Z,13.67
2018-04-04T14:30:35.290Z,13.49
2018-04-04T14:33:02.732Z,13.55
2018-04-04T14:35:30.177Z,13.48
2018-04-04T14:37:57.676Z,13.60
2018-04-04T14:40:25.130Z,13.55
2018-04-04T14:42:52.608Z,13.71
2018-04-04T14:45:20.158Z,13.97
2018-04-04T14:47:47.683Z,13.87
2018-04-04T14:50:15.176Z,13.92
2018-04-04T14:52:42.633Z,13.96
2018-04-04T14:55:10.305Z,14.29
2018-04-04T14:57:37.776Z,14.18
2018-04-04T15:00:05.226Z,14.17
2018-04-04T15:02:32.750Z,14.09
2018-04-04T15:05:00.569Z,14.19
2018-04-04T15:07:28.253Z,14.16
2018-04-04T15:09:55.726Z,14.13
2018-04-04T15:12:23.166Z,14.28
2018-04-04T15:14:50.637Z,13.89
2018-04-04T15:17:18.097Z,13.63
2018-04-04T15:19:45.756Z,13.66
2018-04-04T15:22:13.212Z,13.65
2018-04-04T15:24:40.797Z,13.48
2018-04-04T15:27:08.290Z,13.88
2018-04-04T15:29:35.740Z,13.91
2018-04-04T15:32:03.361Z,14.07
2018-04-04T15:34:30.818Z,14.01
2018-04-04T15:36:58.348Z,14.17
2018-04-04T15:39:25.842Z,14.22
2018-04-04T15:41:53.290Z,14.05
2018-04-04T15:44:21.125Z,13.97
2018-04-04T15:46:48.589Z,14.20
2018-04-04T15:49:16.038Z,14.19
2018-04-04T15:51:43.569Z,13.96
2018-04-04T15:54:11.014Z,14.14
2018-04-04T15:56:38.619Z,14.03
2018-04-04T15:59:06.070Z,13.88
2018-04-04T16:01:33.534Z,13.99
2018-04-04T16:04:01.022Z,13.67
2018-04-04T16:06:28.461Z,13.72
2018-04-04T16:08:56.082Z,13.80
2018-04-04T16:11:23.538Z,13.90
2018-04-04T16:13:51.005Z,13.50
2018-04-04T16:16:18.502Z,13.63
2018-04-04T16:18:45.942Z,13.71
2018-04-04T16:21:13.666Z,13.71
2018-04-04T16:23:41.105Z,13.86
2018-04-04T16:26:08.581Z,14.02
2018-04-04T16:28:36.065Z,13.93
2018-04-04T16:31:03.506Z,13.88
2018-04-04T16:33:30.982Z,13.90
2018-04-04T16:35:58.431Z,13.84
2018-04-04T16:38:25.880Z,13.81
2018-04-04T16:40:53.350Z,13.83
2018-04-04T16:43:20.793Z,13.78
2018-04-04T16:45:48.672Z,13.90
2018-04-04T16:48:16.121Z,13.61
2018-04-04T16:50:43.595Z,13.64
2018-04-04T16:53:11.060Z,13.66
2018-04-04T16:55:38.530Z,13.64
2018-04-04T16:58:06.325Z,13.83
2018-04-04T17:00:33.777Z,13.65
2018-04-04T17:03:01.223Z,13.49
2018-04-04T17:05:28.710Z,13.39
2018-04-04T17:07:56.153Z,13.28
2018-04-04T17:10:23.798Z,13.18
2018-04-04T17:12:51.266Z,13.27
2018-04-04T17:15:18.705Z,13.22
2018-04-04T17:17:46.188Z,13.09
2018-04-04T17:20:13.631Z,13.14
2018-04-04T17:22:41.114Z,13.28
2018-04-04T17:25:08.557Z,13.26
2018-04-04T17:27:36.004Z,13.08
2018-04-04T17:30:03.472Z,12.99
2018-04-04T17:32:30.915Z,13.07
2018-04-04T17:34:58.403Z,13.03
2018-04-04T17:37:25.871Z,12.94
2018-04-04T17:39:53.353Z,12.92
2018-04-04T17:42:20.863Z,12.96
2018-04-04T17:44:48.331Z,13.06
2018-04-04T17:47:15.817Z,13.05
2018-04-04T17:49:43.316Z,12.99
2018-04-04T17:52:10.801Z,13.00
2018-04-04T17:54:38.252Z,12.87
2018-04-04T17:57:06.036Z,12.86
2018-04-04T17:59:33.482Z,13.00
2018-04-04T18:02:00.941Z,12.78
2018-04-04T18:04:28.837Z,12.80
2018-04-04T18:06:56.301Z,12.78
2018-04-04T18:09:23.773Z,12.75
2018-04-04T18:11:51.258Z,12.81
2018-04-04T18:14:18.717Z,12.73
2018-04-04T18:16:46.236Z,12.63
2018-04-04T18:19:13.684Z,12.58
2018-04-04T18:21:41.167Z,12.66
2018-04-04T18:24:08.785Z,12.45
2018-04-04T18:26:36.178Z,12.39
2018-04-04T18:29:03.937Z,12.35
2018-04-04T18:31:31.397Z,12.33
2018-04-04T18:33:58.837Z,12.39
2018-04-04T18:36:26.453Z,12.18
2018-04-04T18:38:54.142Z,12.12
2018-04-04T18:41:21.817Z,12.08
2018-04-04T18:43:49.267Z,11.97
2018-04-04T18:46:16.741Z,11.87
2018-04-04T18:48:44.368Z,11.87
2018-04-04T18:51:11.882Z,11.84
2018-04-04T18:53:39.708Z,11.85
2018-04-04T18:56:07.481Z,11.81
2018-04-04T18:58:35.001Z,11.86
2018-04-04T19:01:02.610Z,11.61
2018-04-04T19:03:30.081Z,11.49
2018-04-04T19:05:57.874Z,11.41
2018-04-04T19:08:25.332Z,11.11
2018-04-04T19:10:52.908Z,11.24
2018-04-04T19:13:20.382Z,11.11
2018-04-04T19:15:47.893Z,11.08
2018-04-04T19:18:15.652Z,10.85
2018-04-04T19:20:43.152Z,10.91
2018-04-04T19:23:10.626Z,10.63
2018-04-04T19:25:38.192Z,10.61
2018-04-04T19:28:06.289Z,10.71
2018-04-04T19:30:33.342Z,10.79
2018-04-04T19:33:00.883Z,10.71
2018-04-04T19:35:28.350Z,10.51
2018-04-04T19:37:56.252Z,10.67
2018-04-04T19:40:23.942Z,10.77
2018-04-04T19:42:51.452Z,10.75
2018-04-04T19:45:19.642Z,10.76
2018-04-04T19:47:47.153Z,10.73
2018-04-04T19:50:14.634Z,10.81
2018-04-04T19:52:42.103Z,10.86
2018-04-04T19:55:09.769Z,10.84
2018-04-04T19:57:37.276Z,10.95
2018-04-04T20:00:04.741Z,10.94
2018-04-04T20:02:32.224Z,10.98
2018-04-04T20:04:59.706Z,11.13
2018-04-04T20:07:27.253Z,10.97
2018-04-04T20:09:54.827Z,10.84
2018-04-04T20:12:22.318Z,11.00
2018-04-04T20:14:49.911Z,10.84
2018-04-04T20:19:52.188Z,10.58
2018-04-04T20:22:20.188Z,10.81
2018-04-04T20:24:47.712Z,10.80
2018-04-04T20:27:15.229Z,10.86
2018-04-04T20:29:42.739Z,11.05
2018-04-04T20:32:10.254Z,11.27
2018-04-04T20:34:37.702Z,10.91
2018-04-04T20:37:05.164Z,10.70
2018-04-04T20:39:32.701Z,10.79
2018-04-04T20:42:00.175Z,10.79
2018-04-04T20:44:27.646Z,10.89
2018-04-04T20:46:55.110Z,10.91
2018-04-04T20:49:22.562Z,10.88
2018-04-04T20:51:50.042Z,11.03
2018-04-04T20:54:17.506Z,10.98
2018-04-04T20:56:45.071Z,10.99
2018-04-04T20:59:12.515Z,11.03
2018-04-04T21:01:39.962Z,10.98
2018-04-04T21:04:07.429Z,11.05
2018-04-04T21:06:34.914Z,11.20
2018-04-04T21:09:02.523Z,11.19
2018-04-04T21:11:29.979Z,11.27
2018-04-04T21:13:57.484Z,11.22
2018-04-04T21:16:24.955Z,11.31
2018-04-04T21:18:52.405Z,11.33
2018-04-04T21:21:20.019Z,11.27
2018-04-04T21:23:47.496Z,11.47
2018-04-04T21:26:14.993Z,11.42
2018-04-04T21:28:42.456Z,11.40
2018-04-04T21:31:09.938Z,11.33
2018-04-04T21:33:37.402Z,11.40
2018-04-04T21:36:04.857Z,11.46
2018-04-04T21:38:32.342Z,11.45
2018-04-04T21:40:59.813Z,11.38
2018-04-04T21:43:27.263Z,11.46
2018-04-04T21:45:54.837Z,11.63
2018-04-04T21:48:22.280Z,11.58
2018-04-04T21:50:49.763Z,11.71
2018-04-04T21:53:17.215Z,11.52
2018-04-04T21:55:44.673Z,11.61
2018-04-04T21:58:12.324Z,11.50
2018-04-04T22:00:39.793Z,11.55
2018-04-04T22:03:07.250Z,11.49
2018-04-04T22:05:34.838Z,11.39
2018-04-04T22:08:02.309Z,11.47
2018-04-04T22:10:29.801Z,11.28
2018-04-04T22:12:57.246Z,11.46
2018-04-04T22:15:24.709Z,11.31
2018-04-04T22:17:52.174Z,11.20
2018-04-04T22:20:19.628Z,11.34
2018-04-04T22:22:47.513Z,11.06
2018-04-04T22:25:14.971Z,11.08
2018-04-04T22:27:42.449Z,11.18
2018-04-04T22:30:09.921Z,11.32
2018-04-04T22:32:37.402Z,11.31
2018-04-04T22:35:04.885Z,11.57
2018-04-04T22:37:32.457Z,11.26
2018-04-04T22:39:59.905Z,11.42
2018-04-04T22:42:27.406Z,11.67
2018-04-04T22:44:54.877Z,11.60
2018-04-04T22:47:22.486Z,11.63
2018-04-04T22:49:49.933Z,11.75
2018-04-04T22:52:17.425Z,11.49
2018-04-04T22:54:44.900Z,11.63
2018-04-04T22:57:12.366Z,11.45
2018-04-04T22:59:40.048Z,11.32
2018-04-04T23:02:07.485Z,11.41
2018-04-04T23:04:35.016Z,11.46
2018-04-04T23:07:02.508Z,11.61
2018-04-04T23:09:31.756Z,11.43
2018-04-04T23:11:59.241Z,11.38
2018-04-04T23:14:26.710Z,11.49
2018-04-04T23:16:54.153Z,11.36
2018-04-04T23:19:21.887Z,11.52
2018-04-04T23:21:49.331Z,11.35
2018-04-04T23:24:16.774Z,11.43
2018-04-04T23:26:44.327Z,11.32
2018-04-04T23:29:11.765Z,11.47
2018-04-04T23:31:39.503Z,11.48
2018-04-04T23:34:06.951Z,11.58
2018-04-04T23:36:34.397Z,11.55
2018-04-04T23:39:03.918Z,11.55
2018-04-04T23:41:31.429Z,11.47
2018-04-04T23:43:58.910Z,11.42
2018-04-04T23:46:26.430Z,11.42
2018-04-04T23:48:53.873Z,11.42
2018-04-04T23:51:21.335Z,11.42
2018-04-04T23:53:48.789Z,11.40
2018-04-04T23:56:16.308Z,11.39
2018-04-04T23:58:43.746Z,11.36
